sensor_id;sensor_type;location;lat;lon;timestamp;P1;durP1;ratioP1;P2;durP2;ratioP2
54307;SDS011;40208;39.778;2.710;2023-09-19T00:00:39;12.73;;;4.88;;
54307;SDS011;40208;39.778;2.710;2023-09-19T00:03:25;18.13;;;4.95;;
54307;SDS011;40208;39.778;2.710;2023-09-19T00:06:10;13.55;;;5.10;;
54307;SDS011;40208;39.778;2.710;2023-09-19T00:08:57;14.18;;;5.68;;
54307;SDS011;40208;39.778;2.710;2023-09-19T00:11:45;10.93;;;5.22;;
54307;SDS011;40208;39.778;2.710;2023-09-19T00:14:33;10.25;;;5.10;;
54307;SDS011;40208;39.778;2.710;2023-09-19T00:17:20;11.23;;;4.68;;
54307;SDS011;40208;39.778;2.710;2023-09-19T00:20:05;12.23;;;4.97;;
54307;SDS011;40208;39.778;2.710;2023-09-19T00:22:51;11.82;;;4.57;;
54307;SDS011;40208;39.778;2.710;2023-09-19T00:25:37;8.80;;;4.85;;
54307;SDS011;40208;39.778;2.710;2023-09-19T00:28:22;9.98;;;4.63;;
54307;SDS011;40208;39.778;2.710;2023-09-19T00:31:08;12.07;;;5.10;;
54307;SDS011;40208;39.778;2.710;2023-09-19T00:33:53;8.57;;;5.10;;
54307;SDS011;40208;39.778;2.710;2023-09-19T00:36:38;7.35;;;4.32;;
54307;SDS011;40208;39.778;2.710;2023-09-19T00:39:23;10.07;;;4.22;;
54307;SDS011;40208;39.778;2.710;2023-09-19T00:42:09;5.70;;;4.10;;
54307;SDS011;40208;39.778;2.710;2023-09-19T00:45:04;12.18;;;5.03;;
54307;SDS011;40208;39.778;2.710;2023-09-19T00:47:50;12.95;;;4.60;;
54307;SDS011;40208;39.778;2.710;2023-09-19T00:50:35;12.55;;;4.47;;
54307;SDS011;40208;39.778;2.710;2023-09-19T00:53:21;9.57;;;4.90;;
54307;SDS011;40208;39.778;2.710;2023-09-19T00:56:07;8.13;;;4.68;;
54307;SDS011;40208;39.778;2.710;2023-09-19T00:58:52;7.75;;;4.95;;
54307;SDS011;40208;39.778;2.710;2023-09-19T01:01:37;10.90;;;4.97;;
54307;SDS011;40208;39.778;2.710;2023-09-19T01:04:24;11.88;;;4.90;;
54307;SDS011;40208;39.778;2.710;2023-09-19T01:07:09;11.85;;;5.10;;
54307;SDS011;40208;39.778;2.710;2023-09-19T01:09:54;7.35;;;4.82;;
54307;SDS011;40208;39.778;2.710;2023-09-19T01:15:44;7.88;;;4.25;;
54307;SDS011;40208;39.778;2.710;2023-09-19T01:18:40;9.77;;;4.93;;
54307;SDS011;40208;39.778;2.710;2023-09-19T01:28:07;13.75;;;6.03;;
54307;SDS011;40208;39.778;2.710;2023-09-19T01:31:15;15.27;;;5.80;;
54307;SDS011;40208;39.778;2.710;2023-09-19T01:34:03;6.82;;;4.30;;
54307;SDS011;40208;39.778;2.710;2023-09-19T01:36:48;11.85;;;5.05;;
54307;SDS011;40208;39.778;2.710;2023-09-19T01:39:33;14.40;;;5.65;;
54307;SDS011;40208;39.778;2.710;2023-09-19T01:45:24;10.70;;;4.70;;
54307;SDS011;40208;39.778;2.710;2023-09-19T01:51:05;13.18;;;5.10;;
54307;SDS011;40208;39.778;2.710;2023-09-19T01:54:04;10.88;;;4.97;;
54307;SDS011;40208;39.778;2.710;2023-09-19T01:57:02;11.35;;;5.05;;
54307;SDS011;40208;39.778;2.710;2023-09-19T02:00:01;10.30;;;4.80;;
54307;SDS011;40208;39.778;2.710;2023-09-19T02:02:50;11.98;;;4.75;;
54307;SDS011;40208;39.778;2.710;2023-09-19T02:05:36;7.43;;;4.20;;
54307;SDS011;40208;39.778;2.710;2023-09-19T02:08:22;6.88;;;4.03;;
54307;SDS011;40208;39.778;2.710;2023-09-19T02:11:10;9.57;;;4.68;;
54307;SDS011;40208;39.778;2.710;2023-09-19T02:13:58;11.15;;;5.45;;
54307;SDS011;40208;39.778;2.710;2023-09-19T02:16:43;9.43;;;4.70;;
54307;SDS011;40208;39.778;2.710;2023-09-19T02:19:28;9.05;;;5.28;;
54307;SDS011;40208;39.778;2.710;2023-09-19T02:22:14;7.55;;;4.90;;
54307;SDS011;40208;39.778;2.710;2023-09-19T02:25:00;8.40;;;4.47;;
54307;SDS011;40208;39.778;2.710;2023-09-19T02:27:46;7.88;;;4.13;;
54307;SDS011;40208;39.778;2.710;2023-09-19T02:30:31;9.77;;;3.80;;
54307;SDS011;40208;39.778;2.710;2023-09-19T02:33:16;6.35;;;4.20;;
54307;SDS011;40208;39.778;2.710;2023-09-19T02:36:04;8.77;;;4.38;;
54307;SDS011;40208;39.778;2.710;2023-09-19T02:38:49;8.82;;;3.97;;
54307;SDS011;40208;39.778;2.710;2023-09-19T02:41:34;8.75;;;4.10;;
54307;SDS011;40208;39.778;2.710;2023-09-19T02:44:19;8.98;;;4.15;;
54307;SDS011;40208;39.778;2.710;2023-09-19T02:47:04;6.80;;;4.15;;
54307;SDS011;40208;39.778;2.710;2023-09-19T02:49:49;5.05;;;3.42;;
54307;SDS011;40208;39.778;2.710;2023-09-19T02:52:34;7.40;;;4.03;;
54307;SDS011;40208;39.778;2.710;2023-09-19T02:55:19;6.15;;;3.65;;
54307;SDS011;40208;39.778;2.710;2023-09-19T02:58:06;8.07;;;3.95;;
54307;SDS011;40208;39.778;2.710;2023-09-19T03:00:59;6.60;;;3.50;;
54307;SDS011;40208;39.778;2.710;2023-09-19T03:03:43;7.78;;;3.72;;
54307;SDS011;40208;39.778;2.710;2023-09-19T03:06:29;5.40;;;3.55;;
54307;SDS011;40208;39.778;2.710;2023-09-19T03:09:15;8.88;;;3.50;;
54307;SDS011;40208;39.778;2.710;2023-09-19T03:12:00;6.50;;;3.50;;
54307;SDS011;40208;39.778;2.710;2023-09-19T03:14:45;9.48;;;4.00;;
54307;SDS011;40208;39.778;2.710;2023-09-19T03:17:30;5.18;;;3.50;;
54307;SDS011;40208;39.778;2.710;2023-09-19T03:20:15;7.25;;;4.00;;
54307;SDS011;40208;39.778;2.710;2023-09-19T03:23:03;7.57;;;3.65;;
54307;SDS011;40208;39.778;2.710;2023-09-19T03:25:50;8.90;;;4.03;;
54307;SDS011;40208;39.778;2.710;2023-09-19T03:28:36;6.30;;;3.47;;
54307;SDS011;40208;39.778;2.710;2023-09-19T03:31:21;7.35;;;4.20;;
54307;SDS011;40208;39.778;2.710;2023-09-19T03:34:06;9.43;;;3.83;;
54307;SDS011;40208;39.778;2.710;2023-09-19T03:36:51;8.07;;;4.22;;
54307;SDS011;40208;39.778;2.710;2023-09-19T03:39:36;10.07;;;3.65;;
54307;SDS011;40208;39.778;2.710;2023-09-19T03:42:21;8.38;;;4.13;;
54307;SDS011;40208;39.778;2.710;2023-09-19T03:45:10;12.75;;;3.90;;
54307;SDS011;40208;39.778;2.710;2023-09-19T03:47:57;8.80;;;3.40;;
54307;SDS011;40208;39.778;2.710;2023-09-19T03:50:42;18.42;;;4.30;;
54307;SDS011;40208;39.778;2.710;2023-09-19T03:53:28;9.50;;;4.10;;
54307;SDS011;40208;39.778;2.710;2023-09-19T03:56:13;8.70;;;3.97;;
54307;SDS011;40208;39.778;2.710;2023-09-19T03:58:58;14.02;;;3.92;;
54307;SDS011;40208;39.778;2.710;2023-09-19T04:01:42;24.38;;;5.75;;
54307;SDS011;40208;39.778;2.710;2023-09-19T04:04:27;20.45;;;5.32;;
54307;SDS011;40208;39.778;2.710;2023-09-19T04:07:13;14.82;;;4.90;;
54307;SDS011;40208;39.778;2.710;2023-09-19T04:09:58;6.97;;;3.60;;
54307;SDS011;40208;39.778;2.710;2023-09-19T04:12:53;12.60;;;4.07;;
54307;SDS011;40208;39.778;2.710;2023-09-19T04:15:38;8.10;;;3.97;;
54307;SDS011;40208;39.778;2.710;2023-09-19T04:18:24;7.45;;;3.33;;
54307;SDS011;40208;39.778;2.710;2023-09-19T04:21:09;5.18;;;3.60;;
54307;SDS011;40208;39.778;2.710;2023-09-19T04:23:54;9.73;;;4.28;;
54307;SDS011;40208;39.778;2.710;2023-09-19T04:26:39;9.32;;;3.72;;
54307;SDS011;40208;39.778;2.710;2023-09-19T04:29:24;9.25;;;3.85;;
54307;SDS011;40208;39.778;2.710;2023-09-19T04:32:10;8.27;;;3.70;;
54307;SDS011;40208;39.778;2.710;2023-09-19T04:34:57;13.65;;;3.95;;
54307;SDS011;40208;39.778;2.710;2023-09-19T04:37:44;18.83;;;4.05;;
54307;SDS011;40208;39.778;2.710;2023-09-19T04:40:29;20.45;;;4.38;;
54307;SDS011;40208;39.778;2.710;2023-09-19T04:43:14;16.02;;;4.40;;
54307;SDS011;40208;39.778;2.710;2023-09-19T04:45:59;17.63;;;4.32;;
54307;SDS011;40208;39.778;2.710;2023-09-19T04:48:44;12.95;;;4.43;;
54307;SDS011;40208;39.778;2.710;2023-09-19T04:51:29;17.77;;;4.00;;
54307;SDS011;40208;39.778;2.710;2023-09-19T04:54:18;11.55;;;3.92;;
54307;SDS011;40208;39.778;2.710;2023-09-19T04:57:03;15.65;;;4.10;;
54307;SDS011;40208;39.778;2.710;2023-09-19T04:59:50;24.98;;;5.05;;
54307;SDS011;40208;39.778;2.710;2023-09-19T05:02:34;12.10;;;4.13;;
54307;SDS011;40208;39.778;2.710;2023-09-19T05:05:19;14.27;;;4.13;;
54307;SDS011;40208;39.778;2.710;2023-09-19T05:08:04;6.53;;;4.72;;
54307;SDS011;40208;39.778;2.710;2023-09-19T05:10:49;11.10;;;4.18;;
54307;SDS011;40208;39.778;2.710;2023-09-19T05:13:34;11.85;;;3.67;;
54307;SDS011;40208;39.778;2.710;2023-09-19T05:16:19;33.50;;;5.65;;
54307;SDS011;40208;39.778;2.710;2023-09-19T05:19:04;35.85;;;4.97;;
54307;SDS011;40208;39.778;2.710;2023-09-19T05:21:49;32.70;;;5.10;;
54307;SDS011;40208;39.778;2.710;2023-09-19T05:24:34;57.35;;;5.30;;
54307;SDS011;40208;39.778;2.710;2023-09-19T05:27:19;70.13;;;5.80;;
54307;SDS011;40208;39.778;2.710;2023-09-19T05:30:05;56.92;;;5.63;;
54307;SDS011;40208;39.778;2.710;2023-09-19T05:32:51;40.13;;;5.47;;
54307;SDS011;40208;39.778;2.710;2023-09-19T05:35:36;27.20;;;5.47;;
54307;SDS011;40208;39.778;2.710;2023-09-19T05:38:24;21.40;;;3.78;;
54307;SDS011;40208;39.778;2.710;2023-09-19T05:41:10;29.33;;;4.82;;
54307;SDS011;40208;39.778;2.710;2023-09-19T05:43:58;20.42;;;3.92;;
54307;SDS011;40208;39.778;2.710;2023-09-19T05:46:43;20.10;;;4.20;;
54307;SDS011;40208;39.778;2.710;2023-09-19T05:49:29;17.42;;;4.72;;
54307;SDS011;40208;39.778;2.710;2023-09-19T05:52:14;6.55;;;3.50;;
54307;SDS011;40208;39.778;2.710;2023-09-19T05:54:59;12.90;;;4.30;;
54307;SDS011;40208;39.778;2.710;2023-09-19T05:57:48;12.48;;;3.80;;
54307;SDS011;40208;39.778;2.710;2023-09-19T06:00:35;13.27;;;4.22;;
54307;SDS011;40208;39.778;2.710;2023-09-19T06:03:21;7.88;;;3.80;;
54307;SDS011;40208;39.778;2.710;2023-09-19T06:06:05;10.23;;;4.38;;
54307;SDS011;40208;39.778;2.710;2023-09-19T06:08:50;9.45;;;3.95;;
54307;SDS011;40208;39.778;2.710;2023-09-19T06:11:35;11.80;;;4.00;;
54307;SDS011;40208;39.778;2.710;2023-09-19T06:14:20;9.23;;;4.72;;
54307;SDS011;40208;39.778;2.710;2023-09-19T06:17:05;20.45;;;5.03;;
54307;SDS011;40208;39.778;2.710;2023-09-19T06:19:50;113.88;;;10.95;;
54307;SDS011;40208;39.778;2.710;2023-09-19T06:22:35;133.55;;;11.38;;
54307;SDS011;40208;39.778;2.710;2023-09-19T06:25:21;117.57;;;9.48;;
54307;SDS011;40208;39.778;2.710;2023-09-19T06:28:06;89.57;;;7.85;;
54307;SDS011;40208;39.778;2.710;2023-09-19T06:30:52;47.75;;;6.85;;
54307;SDS011;40208;39.778;2.710;2023-09-19T06:33:37;38.10;;;5.55;;
54307;SDS011;40208;39.778;2.710;2023-09-19T06:36:23;47.63;;;6.00;;
54307;SDS011;40208;39.778;2.710;2023-09-19T06:39:08;55.83;;;6.45;;
54307;SDS011;40208;39.778;2.710;2023-09-19T06:41:55;67.22;;;6.75;;
54307;SDS011;40208;39.778;2.710;2023-09-19T06:44:40;45.42;;;6.15;;
54307;SDS011;40208;39.778;2.710;2023-09-19T06:47:25;61.42;;;6.30;;
54307;SDS011;40208;39.778;2.710;2023-09-19T06:50:10;48.45;;;6.78;;
54307;SDS011;40208;39.778;2.710;2023-09-19T06:52:57;47.65;;;5.88;;
54307;SDS011;40208;39.778;2.710;2023-09-19T06:55:43;53.65;;;5.50;;
54307;SDS011;40208;39.778;2.710;2023-09-19T06:58:28;44.17;;;6.10;;
54307;SDS011;40208;39.778;2.710;2023-09-19T07:01:13;43.10;;;14.73;;
54307;SDS011;40208;39.778;2.710;2023-09-19T07:03:58;28.13;;;8.25;;
54307;SDS011;40208;39.778;2.710;2023-09-19T07:06:43;48.78;;;19.55;;
54307;SDS011;40208;39.778;2.710;2023-09-19T07:09:30;50.40;;;21.13;;
54307;SDS011;40208;39.778;2.710;2023-09-19T07:12:15;45.17;;;20.52;;
54307;SDS011;40208;39.778;2.710;2023-09-19T07:15:02;40.13;;;22.10;;
54307;SDS011;40208;39.778;2.710;2023-09-19T07:17:47;34.97;;;21.75;;
54307;SDS011;40208;39.778;2.710;2023-09-19T07:20:32;33.47;;;18.80;;
54307;SDS011;40208;39.778;2.710;2023-09-19T07:23:19;39.33;;;20.17;;
54307;SDS011;40208;39.778;2.710;2023-09-19T07:26:05;35.90;;;19.80;;
54307;SDS011;40208;39.778;2.710;2023-09-19T07:28:49;37.63;;;18.33;;
54307;SDS011;40208;39.778;2.710;2023-09-19T07:31:34;33.67;;;17.90;;
54307;SDS011;40208;39.778;2.710;2023-09-19T07:34:19;34.65;;;18.33;;
54307;SDS011;40208;39.778;2.710;2023-09-19T07:37:07;75.78;;;20.60;;
54307;SDS011;40208;39.778;2.710;2023-09-19T07:39:52;55.88;;;19.63;;
54307;SDS011;40208;39.778;2.710;2023-09-19T07:42:37;31.65;;;16.88;;
54307;SDS011;40208;39.778;2.710;2023-09-19T07:45:24;29.55;;;13.88;;
54307;SDS011;40208;39.778;2.710;2023-09-19T07:48:09;29.23;;;13.57;;
54307;SDS011;40208;39.778;2.710;2023-09-19T07:51:02;29.38;;;13.75;;
54307;SDS011;40208;39.778;2.710;2023-09-19T07:53:48;24.55;;;12.65;;
54307;SDS011;40208;39.778;2.710;2023-09-19T07:56:33;26.33;;;12.30;;
54307;SDS011;40208;39.778;2.710;2023-09-19T07:59:18;20.92;;;11.82;;
54307;SDS011;40208;39.778;2.710;2023-09-19T08:02:03;23.20;;;11.93;;
54307;SDS011;40208;39.778;2.710;2023-09-19T08:04:48;27.77;;;11.88;;
54307;SDS011;40208;39.778;2.710;2023-09-19T08:07:33;23.50;;;12.30;;
54307;SDS011;40208;39.778;2.710;2023-09-19T08:10:20;18.02;;;10.27;;
54307;SDS011;40208;39.778;2.710;2023-09-19T08:13:05;19.20;;;10.35;;
54307;SDS011;40208;39.778;2.710;2023-09-19T08:15:50;34.55;;;15.10;;
54307;SDS011;40208;39.778;2.710;2023-09-19T08:18:37;36.88;;;20.52;;
54307;SDS011;40208;39.778;2.710;2023-09-19T08:21:24;23.05;;;13.35;;
54307;SDS011;40208;39.778;2.710;2023-09-19T08:24:10;30.55;;;15.23;;
54307;SDS011;40208;39.778;2.710;2023-09-19T08:26:55;34.47;;;14.23;;
54307;SDS011;40208;39.778;2.710;2023-09-19T08:29:40;28.50;;;13.68;;
54307;SDS011;40208;39.778;2.710;2023-09-19T08:32:28;22.55;;;12.13;;
54307;SDS011;40208;39.778;2.710;2023-09-19T08:35:13;29.60;;;12.00;;
54307;SDS011;40208;39.778;2.710;2023-09-19T08:37:58;24.30;;;12.93;;
54307;SDS011;40208;39.778;2.710;2023-09-19T08:40:48;24.73;;;13.68;;
54307;SDS011;40208;39.778;2.710;2023-09-19T08:43:33;35.38;;;17.63;;
54307;SDS011;40208;39.778;2.710;2023-09-19T08:46:21;35.38;;;17.67;;
54307;SDS011;40208;39.778;2.710;2023-09-19T08:49:33;39.05;;;22.65;;
54307;SDS011;40208;39.778;2.710;2023-09-19T08:52:41;44.85;;;28.88;;
54307;SDS011;40208;39.778;2.710;2023-09-19T08:55:27;42.33;;;25.77;;
54307;SDS011;40208;39.778;2.710;2023-09-19T08:58:12;46.55;;;21.75;;
54307;SDS011;40208;39.778;2.710;2023-09-19T09:01:01;54.05;;;21.52;;
54307;SDS011;40208;39.778;2.710;2023-09-19T09:03:46;37.83;;;18.67;;
54307;SDS011;40208;39.778;2.710;2023-09-19T09:06:32;42.63;;;20.02;;
54307;SDS011;40208;39.778;2.710;2023-09-19T09:09:19;39.35;;;18.50;;
54307;SDS011;40208;39.778;2.710;2023-09-19T09:12:05;37.95;;;19.35;;
54307;SDS011;40208;39.778;2.710;2023-09-19T09:14:51;43.08;;;25.88;;
54307;SDS011;40208;39.778;2.710;2023-09-19T09:17:37;28.17;;;16.48;;
54307;SDS011;40208;39.778;2.710;2023-09-19T09:20:22;31.52;;;16.65;;
54307;SDS011;40208;39.778;2.710;2023-09-19T09:23:07;33.70;;;17.05;;
54307;SDS011;40208;39.778;2.710;2023-09-19T09:25:52;22.67;;;12.88;;
54307;SDS011;40208;39.778;2.710;2023-09-19T09:28:44;26.17;;;13.80;;
54307;SDS011;40208;39.778;2.710;2023-09-19T09:31:30;19.67;;;10.27;;
54307;SDS011;40208;39.778;2.710;2023-09-19T09:34:15;16.90;;;8.65;;
54307;SDS011;40208;39.778;2.710;2023-09-19T09:37:00;16.35;;;7.93;;
54307;SDS011;40208;39.778;2.710;2023-09-19T09:39:51;12.98;;;8.00;;
54307;SDS011;40208;39.778;2.710;2023-09-19T09:42:56;13.90;;;6.25;;
54307;SDS011;40208;39.778;2.710;2023-09-19T09:45:44;18.30;;;5.60;;
54307;SDS011;40208;39.778;2.710;2023-09-19T09:48:33;10.57;;;5.30;;
54307;SDS011;40208;39.778;2.710;2023-09-19T09:51:29;8.80;;;4.25;;
54307;SDS011;40208;39.778;2.710;2023-09-19T09:54:23;8.90;;;4.45;;
54307;SDS011;40208;39.778;2.710;2023-09-19T09:57:18;8.20;;;2.97;;
54307;SDS011;40208;39.778;2.710;2023-09-19T10:00:08;5.55;;;3.03;;
54307;SDS011;40208;39.778;2.710;2023-09-19T10:02:57;10.18;;;2.78;;
54307;SDS011;40208;39.778;2.710;2023-09-19T10:05:43;6.40;;;2.53;;
54307;SDS011;40208;39.778;2.710;2023-09-19T10:08:29;5.60;;;2.53;;
54307;SDS011;40208;39.778;2.710;2023-09-19T10:11:15;9.55;;;3.50;;
54307;SDS011;40208;39.778;2.710;2023-09-19T10:14:00;12.45;;;2.80;;
54307;SDS011;40208;39.778;2.710;2023-09-19T10:16:48;15.60;;;2.83;;
54307;SDS011;40208;39.778;2.710;2023-09-19T10:19:36;24.05;;;3.47;;
54307;SDS011;40208;39.778;2.710;2023-09-19T10:22:22;5.72;;;2.40;;
54307;SDS011;40208;39.778;2.710;2023-09-19T10:25:08;13.23;;;3.00;;
54307;SDS011;40208;39.778;2.710;2023-09-19T10:27:54;15.07;;;2.67;;
54307;SDS011;40208;39.778;2.710;2023-09-19T10:30:43;6.15;;;2.50;;
54307;SDS011;40208;39.778;2.710;2023-09-19T10:33:29;9.55;;;2.67;;
54307;SDS011;40208;39.778;2.710;2023-09-19T10:36:23;8.68;;;2.67;;
54307;SDS011;40208;39.778;2.710;2023-09-19T10:39:16;14.02;;;3.13;;
54307;SDS011;40208;39.778;2.710;2023-09-19T10:42:03;8.50;;;3.63;;
54307;SDS011;40208;39.778;2.710;2023-09-19T10:44:52;11.25;;;3.25;;
54307;SDS011;40208;39.778;2.710;2023-09-19T10:47:40;20.48;;;4.80;;
54307;SDS011;40208;39.778;2.710;2023-09-19T10:50:24;11.90;;;3.40;;
54307;SDS011;40208;39.778;2.710;2023-09-19T10:53:15;7.30;;;2.83;;
54307;SDS011;40208;39.778;2.710;2023-09-19T10:56:01;12.45;;;4.22;;
54307;SDS011;40208;39.778;2.710;2023-09-19T10:59:13;26.80;;;7.10;;
54307;SDS011;40208;39.778;2.710;2023-09-19T11:02:17;19.13;;;4.32;;
54307;SDS011;40208;39.778;2.710;2023-09-19T11:05:12;17.10;;;3.50;;
54307;SDS011;40208;39.778;2.710;2023-09-19T11:07:57;9.55;;;3.75;;
54307;SDS011;40208;39.778;2.710;2023-09-19T11:10:49;13.55;;;3.78;;
54307;SDS011;40208;39.778;2.710;2023-09-19T11:13:35;17.90;;;4.30;;
54307;SDS011;40208;39.778;2.710;2023-09-19T11:16:21;11.80;;;4.28;;
54307;SDS011;40208;39.778;2.710;2023-09-19T11:19:08;17.75;;;4.13;;
54307;SDS011;40208;39.778;2.710;2023-09-19T11:21:55;16.35;;;4.03;;
54307;SDS011;40208;39.778;2.710;2023-09-19T11:24:40;20.20;;;3.75;;
54307;SDS011;40208;39.778;2.710;2023-09-19T11:27:26;14.15;;;3.83;;
54307;SDS011;40208;39.778;2.710;2023-09-19T11:30:26;16.20;;;3.65;;
54307;SDS011;40208;39.778;2.710;2023-09-19T11:36:13;17.15;;;3.38;;
54307;SDS011;40208;39.778;2.710;2023-09-19T11:38:59;18.23;;;3.28;;
54307;SDS011;40208;39.778;2.710;2023-09-19T11:41:52;13.15;;;3.13;;
54307;SDS011;40208;39.778;2.710;2023-09-19T11:44:40;10.38;;;2.72;;
54307;SDS011;40208;39.778;2.710;2023-09-19T11:47:25;15.68;;;3.83;;
54307;SDS011;40208;39.778;2.710;2023-09-19T11:50:10;14.77;;;3.00;;
54307;SDS011;40208;39.778;2.710;2023-09-19T11:52:56;10.07;;;2.88;;
54307;SDS011;40208;39.778;2.710;2023-09-19T11:55:42;17.77;;;2.53;;
54307;SDS011;40208;39.778;2.710;2023-09-19T11:58:28;11.73;;;2.90;;
54307;SDS011;40208;39.778;2.710;2023-09-19T12:01:15;13.68;;;3.10;;
54307;SDS011;40208;39.778;2.710;2023-09-19T12:04:08;14.18;;;3.13;;
54307;SDS011;40208;39.778;2.710;2023-09-19T12:06:56;13.63;;;3.55;;
54307;SDS011;40208;39.778;2.710;2023-09-19T12:09:43;8.60;;;2.42;;
54307;SDS011;40208;39.778;2.710;2023-09-19T12:12:31;7.57;;;2.72;;
54307;SDS011;40208;39.778;2.710;2023-09-19T12:15:25;10.38;;;3.17;;
54307;SDS011;40208;39.778;2.710;2023-09-19T12:18:31;7.30;;;2.72;;
54307;SDS011;40208;39.778;2.710;2023-09-19T12:21:23;11.48;;;3.55;;
54307;SDS011;40208;39.778;2.710;2023-09-19T12:24:14;8.10;;;2.72;;
54307;SDS011;40208;39.778;2.710;2023-09-19T12:27:03;8.75;;;2.45;;
54307;SDS011;40208;39.778;2.710;2023-09-19T12:29:49;9.70;;;2.70;;
54307;SDS011;40208;39.778;2.710;2023-09-19T12:32:39;10.02;;;2.63;;
54307;SDS011;40208;39.778;2.710;2023-09-19T12:35:28;9.40;;;2.67;;
54307;SDS011;40208;39.778;2.710;2023-09-19T12:38:26;15.18;;;2.75;;
54307;SDS011;40208;39.778;2.710;2023-09-19T12:41:19;11.02;;;2.80;;
54307;SDS011;40208;39.778;2.710;2023-09-19T12:44:06;10.45;;;2.53;;
54307;SDS011;40208;39.778;2.710;2023-09-19T12:46:53;11.75;;;2.72;;
54307;SDS011;40208;39.778;2.710;2023-09-19T12:52:52;14.70;;;3.00;;
54307;SDS011;40208;39.778;2.710;2023-09-19T12:55:40;13.50;;;3.50;;
54307;SDS011;40208;39.778;2.710;2023-09-19T12:58:27;8.98;;;2.40;;
54307;SDS011;40208;39.778;2.710;2023-09-19T13:01:15;13.68;;;2.75;;
54307;SDS011;40208;39.778;2.710;2023-09-19T13:04:12;16.35;;;3.13;;
54307;SDS011;40208;39.778;2.710;2023-09-19T13:06:59;23.00;;;2.78;;
54307;SDS011;40208;39.778;2.710;2023-09-19T13:10:02;13.80;;;3.47;;
54307;SDS011;40208;39.778;2.710;2023-09-19T13:12:48;16.58;;;2.92;;
54307;SDS011;40208;39.778;2.710;2023-09-19T13:15:50;11.32;;;2.58;;
54307;SDS011;40208;39.778;2.710;2023-09-19T13:18:43;14.32;;;3.65;;
54307;SDS011;40208;39.778;2.710;2023-09-19T13:24:23;16.13;;;4.00;;
54307;SDS011;40208;39.778;2.710;2023-09-19T13:27:12;12.15;;;3.63;;
54307;SDS011;40208;39.778;2.710;2023-09-19T13:29:56;16.33;;;3.85;;
54307;SDS011;40208;39.778;2.710;2023-09-19T13:32:43;13.35;;;3.60;;
54307;SDS011;40208;39.778;2.710;2023-09-19T13:35:28;14.75;;;3.35;;
54307;SDS011;40208;39.778;2.710;2023-09-19T13:38:12;16.83;;;3.40;;
54307;SDS011;40208;39.778;2.710;2023-09-19T13:40:58;13.52;;;4.15;;
54307;SDS011;40208;39.778;2.710;2023-09-19T13:43:45;14.90;;;4.35;;
54307;SDS011;40208;39.778;2.710;2023-09-19T13:46:33;23.40;;;6.10;;
54307;SDS011;40208;39.778;2.710;2023-09-19T13:49:19;24.83;;;6.78;;
54307;SDS011;40208;39.778;2.710;2023-09-19T13:52:05;19.85;;;5.10;;
54307;SDS011;40208;39.778;2.710;2023-09-19T13:54:51;12.63;;;4.38;;
54307;SDS011;40208;39.778;2.710;2023-09-19T13:57:45;16.15;;;4.68;;
54307;SDS011;40208;39.778;2.710;2023-09-19T14:00:34;21.23;;;5.07;;
54307;SDS011;40208;39.778;2.710;2023-09-19T14:03:19;25.42;;;11.00;;
54307;SDS011;40208;39.778;2.710;2023-09-19T14:06:05;23.40;;;6.97;;
54307;SDS011;40208;39.778;2.710;2023-09-19T14:08:50;23.05;;;7.22;;
54307;SDS011;40208;39.778;2.710;2023-09-19T14:11:37;20.50;;;8.07;;
54307;SDS011;40208;39.778;2.710;2023-09-19T14:14:22;24.02;;;9.15;;
54307;SDS011;40208;39.778;2.710;2023-09-19T14:17:10;28.92;;;12.02;;
54307;SDS011;40208;39.778;2.710;2023-09-19T14:19:55;19.40;;;5.35;;
54307;SDS011;40208;39.778;2.710;2023-09-19T14:22:40;11.57;;;4.25;;
54307;SDS011;40208;39.778;2.710;2023-09-19T14:25:26;10.88;;;4.00;;
54307;SDS011;40208;39.778;2.710;2023-09-19T14:28:14;13.02;;;3.60;;
54307;SDS011;40208;39.778;2.710;2023-09-19T14:31:08;13.55;;;3.53;;
54307;SDS011;40208;39.778;2.710;2023-09-19T14:33:54;10.85;;;3.00;;
54307;SDS011;40208;39.778;2.710;2023-09-19T14:36:40;20.75;;;4.07;;
54307;SDS011;40208;39.778;2.710;2023-09-19T14:39:25;15.48;;;3.03;;
54307;SDS011;40208;39.778;2.710;2023-09-19T14:42:11;10.63;;;2.38;;
54307;SDS011;40208;39.778;2.710;2023-09-19T14:44:57;10.45;;;2.45;;
54307;SDS011;40208;39.778;2.710;2023-09-19T14:47:42;9.00;;;2.17;;
54307;SDS011;40208;39.778;2.710;2023-09-19T14:50:27;7.00;;;1.58;;
54307;SDS011;40208;39.778;2.710;2023-09-19T14:53:14;10.88;;;2.38;;
54307;SDS011;40208;39.778;2.710;2023-09-19T14:56:01;13.07;;;1.70;;
54307;SDS011;40208;39.778;2.710;2023-09-19T14:58:49;12.00;;;2.25;;
54307;SDS011;40208;39.778;2.710;2023-09-19T15:01:34;9.35;;;1.63;;
54307;SDS011;40208;39.778;2.710;2023-09-19T15:04:19;14.35;;;1.88;;
54307;SDS011;40208;39.778;2.710;2023-09-19T15:07:04;10.75;;;2.45;;
54307;SDS011;40208;39.778;2.710;2023-09-19T15:09:49;6.47;;;1.80;;
54307;SDS011;40208;39.778;2.710;2023-09-19T15:12:33;24.70;;;2.10;;
54307;SDS011;40208;39.778;2.710;2023-09-19T15:15:19;14.63;;;2.03;;
54307;SDS011;40208;39.778;2.710;2023-09-19T15:18:04;6.00;;;1.42;;
54307;SDS011;40208;39.778;2.710;2023-09-19T15:20:49;27.40;;;2.42;;
54307;SDS011;40208;39.778;2.710;2023-09-19T15:23:35;20.48;;;4.35;;
54307;SDS011;40208;39.778;2.710;2023-09-19T15:26:20;16.73;;;3.00;;
54307;SDS011;40208;39.778;2.710;2023-09-19T15:29:06;14.35;;;2.88;;
54307;SDS011;40208;39.778;2.710;2023-09-19T15:31:51;10.38;;;4.30;;
54307;SDS011;40208;39.778;2.710;2023-09-19T15:34:36;9.52;;;3.17;;
54307;SDS011;40208;39.778;2.710;2023-09-19T15:37:21;10.57;;;4.32;;
54307;SDS011;40208;39.778;2.710;2023-09-19T15:40:07;7.88;;;4.65;;
54307;SDS011;40208;39.778;2.710;2023-09-19T15:42:55;10.77;;;3.67;;
54307;SDS011;40208;39.778;2.710;2023-09-19T15:45:40;9.73;;;2.17;;
54307;SDS011;40208;39.778;2.710;2023-09-19T15:48:25;4.72;;;1.67;;
54307;SDS011;40208;39.778;2.710;2023-09-19T15:51:10;6.00;;;1.88;;
54307;SDS011;40208;39.778;2.710;2023-09-19T15:53:58;14.65;;;6.88;;
54307;SDS011;40208;39.778;2.710;2023-09-19T15:56:47;7.63;;;2.97;;
54307;SDS011;40208;39.778;2.710;2023-09-19T15:59:33;10.93;;;4.22;;
54307;SDS011;40208;39.778;2.710;2023-09-19T16:02:19;12.93;;;3.85;;
54307;SDS011;40208;39.778;2.710;2023-09-19T16:05:04;10.23;;;4.38;;
54307;SDS011;40208;39.778;2.710;2023-09-19T16:07:49;14.32;;;4.50;;
54307;SDS011;40208;39.778;2.710;2023-09-19T16:10:35;5.05;;;1.70;;
54307;SDS011;40208;39.778;2.710;2023-09-19T16:13:21;6.55;;;1.27;;
54307;SDS011;40208;39.778;2.710;2023-09-19T16:16:08;2.97;;;1.20;;
54307;SDS011;40208;39.778;2.710;2023-09-19T16:18:57;3.83;;;0.95;;
54307;SDS011;40208;39.778;2.710;2023-09-19T16:21:45;2.42;;;0.90;;
54307;SDS011;40208;39.778;2.710;2023-09-19T16:24:29;5.97;;;1.40;;
54307;SDS011;40208;39.778;2.710;2023-09-19T16:27:14;7.32;;;1.30;;
54307;SDS011;40208;39.778;2.710;2023-09-19T16:30:00;4.05;;;1.10;;
54307;SDS011;40208;39.778;2.710;2023-09-19T16:32:45;5.30;;;1.02;;
54307;SDS011;40208;39.778;2.710;2023-09-19T16:35:30;2.97;;;0.85;;
54307;SDS011;40208;39.778;2.710;2023-09-19T16:38:15;3.58;;;0.80;;
54307;SDS011;40208;39.778;2.710;2023-09-19T16:41:00;4.63;;;1.23;;
54307;SDS011;40208;39.778;2.710;2023-09-19T16:43:44;3.47;;;0.93;;
54307;SDS011;40208;39.778;2.710;2023-09-19T16:46:30;10.05;;;1.00;;
54307;SDS011;40208;39.778;2.710;2023-09-19T16:49:15;3.95;;;1.40;;
54307;SDS011;40208;39.778;2.710;2023-09-19T16:52:00;4.50;;;1.10;;
54307;SDS011;40208;39.778;2.710;2023-09-19T16:54:44;9.70;;;1.40;;
54307;SDS011;40208;39.778;2.710;2023-09-19T16:57:30;3.60;;;0.80;;